Pagina principală
METAR-TAF:

METAR-TAF

Aeroporturi :

Majuro, Insulele Marshall

Latitudine: 07-04N, longitudine: 171-17E, elevație: 2 m

Observații meteo curente

Raportul a fost făcut în urmă cu 6 ore și 8 de minute, la 06:57 UTC
Vânt 6 kt de la Sud/Sud-est
Temperatură 30°C
Umiditate 75%
Presiune 1011 hPa
Vizibilitate: 24.1 km
Nori puțini la o înălțime de 1500 picior
Nori împrăștiați la o înălțime de 5000 picior
Nori fragmentați la o înălțime de 30000 picior

METAR: PKMJ 290657Z 15006KT 15SM FEW015 SCT050 BKN300 30/25 A2985 RMK LAST

Ora: 01:05 (13:05 UTC)

Prognoză

Raportul a fost făcut în urmă cu 1 oră și 43 de minute, la 11:22 UTC
Prognoză valabilă de la 29 ora 12 UTC la 30 ora 12 UTC
Vânt 7 kt de la Sud/Sud-est
Vizibilitate: 10 km
Nori puțini la o înălțime de 1800 picior

TAF: PKMJ 291122Z 2912/3012 15007KT P6SM FEW018

Observații și prognoze meteo pentru peste 4.000 de aeroporturi (rapoarte METAR și TAF).

Stațiile disponibile sunt reprezentate pe hartă prin puncte galbene și roșii.

Țineți indicatorul mouse-ului pe punctul dorit pentru a vedea denumirea stației.

Apoi, faceți clic pentru a vedea observațiile și prognozele meteorologice.

Pentru a schimba harta: Pentru mărire, faceți clic pe butoanele verzi cu cruce neagră; pentru micșorare, pe butonul verde cu o liniuță; pentru hărți învecinate, pe săgețile verzi.


METAR-TAF: